Time;durP1;ratioP1;P1;durP2;ratioP2;P2;SDS_P1;SDS_P2;PMS_P1;PMS_P2;Temp;Humidity;BMP_temperature;BMP_pressure;BME280_temperature;BME280_humidity;BME280_pressure;Samples;Min_cycle;Max_cycle;Signal;HPM_P1;HPM_P2
2023/05/03 00:00:35;;;;;;;13.77;12.30;;;10.10;99.90;;;;;;5065261;28;20448;-77
2023/05/03 00:03:05;;;;;;;14.07;12.47;;;10.10;99.90;;;;;;5057484;28;20469;-76
2023/05/03 00:05:33;;;;;;;13.57;12.10;;;10.00;99.90;;;;;;5064010;28;20452;-78
2023/05/03 00:08:01;;;;;;;14.20;12.77;;;10.00;99.90;;;;;;5061154;28;20457;-76
2023/05/03 00:10:28;;;;;;;12.83;11.67;;;10.00;99.90;;;;;;5057710;28;20446;-76
2023/05/03 00:12:55;;;;;;;13.67;12.47;;;10.00;99.90;;;;;;5054363;28;20494;-76
2023/05/03 00:15:22;;;;;;;12.73;11.53;;;10.00;99.90;;;;;;5056060;28;20448;-76
2023/05/03 00:17:50;;;;;;;15.87;14.10;;;10.00;99.90;;;;;;5068390;28;21042;-77
2023/05/03 00:20:18;;;;;;;13.80;12.50;;;10.00;99.90;;;;;;5071173;28;20498;-77
2023/05/03 00:22:46;;;;;;;14.60;13.20;;;10.00;99.90;;;;;;5063219;28;20517;-78
2023/05/03 00:25:14;;;;;;;13.80;12.33;;;10.00;99.90;;;;;;5073811;28;20461;-77
2023/05/03 00:27:41;;;;;;;14.07;12.60;;;10.00;99.90;;;;;;5053556;28;20495;-78
2023/05/03 00:30:09;;;;;;;13.97;12.53;;;10.00;99.90;;;;;;5063797;28;20436;-80
2023/05/03 00:32:36;;;;;;;13.20;12.10;;;10.00;99.90;;;;;;5065573;28;20476;-78
2023/05/03 00:35:03;;;;;;;11.57;10.53;;;10.00;99.90;;;;;;5056394;28;20919;-77
2023/05/03 00:37:31;;;;;;;13.07;11.57;;;10.10;99.90;;;;;;5058816;28;20456;-77
2023/05/03 00:39:59;;;;;;;12.70;11.40;;;10.10;99.90;;;;;;5056105;28;20531;-77
2023/05/03 00:42:26;;;;;;;13.63;12.40;;;10.10;99.90;;;;;;5051835;28;20440;-78
2023/05/03 00:44:54;;;;;;;11.87;10.20;;;10.10;99.90;;;;;;5057480;28;20459;-78
2023/05/03 00:47:21;;;;;;;9.53;8.63;;;10.10;99.90;;;;;;5054783;28;20449;-82
2023/05/03 00:49:48;;;;;;;9.60;8.77;;;10.10;99.90;;;;;;5059493;28;20518;-76
2023/05/03 00:52:16;;;;;;;8.90;8.00;;;10.00;99.90;;;;;;5057175;28;20537;-76
2023/05/03 00:54:43;;;;;;;8.67;7.87;;;10.00;99.90;;;;;;5054699;28;21170;-81
2023/05/03 00:57:12;;;;;;;8.23;7.40;;;10.10;99.90;;;;;;5060849;28;20997;-76
2023/05/03 00:59:39;;;;;;;9.00;8.20;;;10.10;99.90;;;;;;5059414;28;20468;-76
2023/05/03 01:02:06;;;;;;;8.23;7.53;;;10.00;99.90;;;;;;5063069;28;20444;-76
2023/05/03 01:04:36;;;;;;;9.33;8.37;;;10.00;99.90;;;;;;5057904;28;20448;-78
2023/05/03 01:07:13;;;;;;;8.00;7.20;;;10.00;99.90;;;;;;5059470;28;20829;-77
2023/05/03 01:09:48;;;;;;;7.53;6.83;;;10.00;99.90;;;;;;5058101;28;20443;-78
2023/05/03 01:12:28;;;;;;;8.43;7.63;;;10.10;99.90;;;;;;5066190;28;20514;-76
2023/05/03 01:15:12;;;;;;;7.73;7.10;;;10.00;99.90;;;;;;5069168;28;20444;-77
2023/05/03 01:17:43;;;;;;;7.00;6.40;;;10.00;99.90;;;;;;5067912;28;20527;-76
2023/05/03 01:20:13;;;;;;;7.57;6.77;;;10.00;99.90;;;;;;5062733;28;20457;-78
2023/05/03 01:22:46;;;;;;;6.43;5.77;;;10.00;99.90;;;;;;5068669;28;20981;-79
2023/05/03 01:25:15;;;;;;;10.03;7.47;;;10.00;99.90;;;;;;5054227;28;20441;-78
2023/05/03 01:27:43;;;;;;;8.00;6.60;;;10.00;99.90;;;;;;5059925;28;20497;-77
2023/05/03 01:30:12;;;;;;;6.73;6.13;;;10.10;99.90;;;;;;5068504;28;20472;-76
2023/05/03 01:32:50;;;;;;;6.27;5.87;;;10.10;99.90;;;;;;5061372;28;20541;-79
2023/05/03 01:35:26;;;;;;;6.90;6.30;;;10.10;99.90;;;;;;5052515;28;20995;-77
2023/05/03 01:37:56;;;;;;;6.83;6.23;;;10.00;99.90;;;;;;5063940;28;20499;-79
2023/05/03 01:40:28;;;;;;;6.23;5.57;;;10.10;99.90;;;;;;5069586;28;20478;-77
2023/05/03 01:42:56;;;;;;;7.30;6.60;;;10.00;99.90;;;;;;5067259;28;20437;-77
2023/05/03 01:45:23;;;;;;;11.70;5.80;;;10.10;99.90;;;;;;5069107;28;20976;-77
2023/05/03 01:47:50;;;;;;;6.27;5.87;;;10.10;99.90;;;;;;5068321;28;20460;-76
2023/05/03 01:50:17;;;;;;;7.80;7.13;;;10.10;99.90;;;;;;5061148;28;20511;-81
2023/05/03 01:52:44;;;;;;;6.70;6.20;;;10.10;99.90;;;;;;5063143;28;20529;-76
2023/05/03 01:55:11;;;;;;;6.63;6.07;;;10.00;99.90;;;;;;5060612;28;20448;-77
2023/05/03 01:57:40;;;;;;;6.40;5.93;;;10.00;99.90;;;;;;5069329;28;20501;-77
2023/05/03 02:00:09;;;;;;;7.20;6.60;;;10.00;99.90;;;;;;5068894;28;20495;-78
2023/05/03 02:02:35;;;;;;;6.87;6.33;;;10.10;99.90;;;;;;5064639;28;21119;-77
2023/05/03 02:05:03;;;;;;;10.40;7.90;;;10.10;99.90;;;;;;5068880;28;21215;-77
2023/05/03 02:07:30;;;;;;;8.17;7.47;;;10.20;99.90;;;;;;5064964;28;20467;-77
2023/05/03 02:09:56;;;;;;;7.83;7.13;;;10.20;99.90;;;;;;5062080;28;20985;-77
2023/05/03 02:12:24;;;;;;;7.67;7.07;;;10.10;99.90;;;;;;5066034;28;20513;-77
2023/05/03 02:14:52;;;;;;;8.93;8.03;;;10.20;99.90;;;;;;5067374;28;20448;-76
2023/05/03 02:17:19;;;;;;;7.13;6.50;;;10.20;99.90;;;;;;5068570;28;20533;-77
2023/05/03 02:19:46;;;;;;;6.53;6.03;;;10.20;99.90;;;;;;5063296;28;20439;-75
2023/05/03 02:22:13;;;;;;;8.03;7.33;;;10.20;99.90;;;;;;5067103;28;20448;-77
2023/05/03 02:24:40;;;;;;;9.40;8.50;;;10.20;99.90;;;;;;5059459;28;21002;-77
2023/05/03 02:27:07;;;;;;;8.50;7.50;;;10.20;99.90;;;;;;5056588;28;20437;-78
2023/05/03 02:29:34;;;;;;;10.40;9.40;;;10.20;99.90;;;;;;5067550;28;20505;-76
2023/05/03 02:32:04;;;;;;;8.10;7.40;;;10.20;99.90;;;;;;5064168;28;20436;-80
2023/05/03 02:34:31;;;;;;;9.37;7.47;;;10.10;99.90;;;;;;5062828;28;20471;-76
2023/05/03 02:36:58;;;;;;;8.13;7.00;;;10.20;99.90;;;;;;5056199;28;20850;-81
2023/05/03 02:39:26;;;;;;;9.03;8.17;;;10.20;99.90;;;;;;5062143;28;20449;-78
2023/05/03 02:41:53;;;;;;;8.47;7.77;;;10.20;99.90;;;;;;5059951;28;20919;-77
2023/05/03 02:44:20;;;;;;;9.73;8.83;;;10.20;99.90;;;;;;5063669;28;20456;-77
2023/05/03 02:46:47;;;;;;;10.23;8.73;;;10.20;99.90;;;;;;5061047;28;20440;-77
2023/05/03 02:49:15;;;;;;;9.37;8.20;;;10.20;99.90;;;;;;5066436;28;20472;-78
2023/05/03 02:51:42;;;;;;;9.60;8.70;;;10.20;99.90;;;;;;5061503;28;20789;-77
2023/05/03 02:54:09;;;;;;;10.50;9.40;;;10.20;99.90;;;;;;5062420;28;21309;-77
2023/05/03 02:56:37;;;;;;;10.17;9.17;;;10.10;99.90;;;;;;5064376;28;20456;-76
2023/05/03 02:59:04;;;;;;;9.63;8.73;;;10.20;99.90;;;;;;5061180;28;20459;-76
2023/05/03 03:01:32;;;;;;;9.77;8.87;;;10.10;99.90;;;;;;5051793;28;20449;-80
2023/05/03 03:03:59;;;;;;;9.37;8.53;;;10.10;99.90;;;;;;5061496;28;20476;-77
2023/05/03 03:06:28;;;;;;;10.20;9.13;;;10.10;99.90;;;;;;5062215;28;20445;-78
2023/05/03 03:08:55;;;;;;;10.33;9.30;;;10.10;99.90;;;;;;5052253;28;20449;-76
2023/05/03 03:11:22;;;;;;;10.23;9.20;;;10.20;99.90;;;;;;5055669;28;20459;-76
2023/05/03 03:13:49;;;;;;;13.83;9.23;;;10.20;99.90;;;;;;5057236;28;20993;-76
2023/05/03 03:16:16;;;;;;;11.47;10.27;;;10.20;99.90;;;;;;5062732;28;20967;-76
2023/05/03 03:18:43;;;;;;;9.80;8.83;;;10.20;99.90;;;;;;5064663;28;20532;-76
2023/05/03 03:21:10;;;;;;;10.40;9.40;;;10.20;99.90;;;;;;5063483;28;20502;-77
2023/05/03 03:23:39;;;;;;;10.43;9.53;;;10.20;99.90;;;;;;5064343;28;20516;-77
2023/05/03 03:26:06;;;;;;;11.33;10.13;;;10.20;99.90;;;;;;5056869;28;20453;-76
2023/05/03 03:28:33;;;;;;;10.03;9.13;;;10.20;99.90;;;;;;5060473;28;20839;-78
2023/05/03 03:31:00;;;;;;;13.50;10.90;;;10.20;99.90;;;;;;5056737;28;20449;-76
2023/05/03 03:33:27;;;;;;;12.20;10.97;;;10.20;99.90;;;;;;5065566;28;20472;-76
2023/05/03 03:35:54;;;;;;;12.90;11.10;;;10.20;99.90;;;;;;5079757;28;20464;-79
2023/05/03 03:38:21;;;;;;;11.53;10.33;;;10.20;99.90;;;;;;5076398;28;20496;-76
2023/05/03 03:40:49;;;;;;;12.40;11.10;;;10.20;99.90;;;;;;5069278;28;20471;-76
2023/05/03 03:43:16;;;;;;;13.90;12.50;;;10.20;99.90;;;;;;5054867;28;20919;-76
2023/05/03 03:45:43;;;;;;;12.17;11.03;;;10.10;99.90;;;;;;5063244;28;20448;-78
2023/05/03 03:48:10;;;;;;;13.83;11.03;;;10.10;99.90;;;;;;5067146;28;20491;-77
2023/05/03 03:50:37;;;;;;;12.30;11.10;;;10.10;99.90;;;;;;5060535;28;20444;-77
2023/05/03 03:53:05;;;;;;;13.33;11.70;;;10.10;99.90;;;;;;5067091;28;21204;-77
2023/05/03 03:55:31;;;;;;;13.50;12.10;;;10.20;99.90;;;;;;5063569;28;20455;-81
2023/05/03 03:58:00;;;;;;;14.77;11.77;;;10.20;99.90;;;;;;5059135;28;20441;-81
2023/05/03 04:00:27;;;;;;;13.13;11.83;;;10.10;99.90;;;;;;5064692;28;20486;-77
2023/05/03 04:02:54;;;;;;;15.00;13.60;;;10.10;99.90;;;;;;5055305;28;20524;-80
2023/05/03 04:05:21;;;;;;;12.80;11.50;;;10.10;99.90;;;;;;5065333;28;20432;-80
2023/05/03 04:07:48;;;;;;;12.57;11.30;;;10.10;99.90;;;;;;5064703;28;20440;-78
2023/05/03 04:10:15;;;;;;;14.73;13.30;;;10.10;99.90;;;;;;5061710;28;20531;-77
2023/05/03 04:12:42;;;;;;;13.10;11.80;;;10.20;99.90;;;;;;5061717;28;20880;-77
2023/05/03 04:15:11;;;;;;;14.00;12.53;;;10.10;99.90;;;;;;5060070;28;20943;-77
2023/05/03 04:17:38;;;;;;;15.07;13.47;;;10.10;99.90;;;;;;5057779;28;20818;-77
2023/05/03 04:20:06;;;;;;;16.70;14.40;;;10.10;99.90;;;;;;5064900;28;20525;-76
2023/05/03 04:22:33;;;;;;;15.17;11.57;;;10.10;99.90;;;;;;5062020;28;20526;-78
2023/05/03 04:25:00;;;;;;;15.47;13.50;;;10.10;99.90;;;;;;5057825;28;20990;-76
2023/05/03 04:27:27;;;;;;;13.60;12.33;;;10.10;99.90;;;;;;5062352;28;20537;-78
2023/05/03 04:29:54;;;;;;;13.97;12.67;;;10.00;99.90;;;;;;5066416;28;20460;-79
2023/05/03 04:32:23;;;;;;;14.93;13.43;;;10.00;99.90;;;;;;5061131;28;20498;-78
2023/05/03 04:34:51;;;;;;;14.70;13.13;;;10.10;99.90;;;;;;5059155;28;20484;-77
2023/05/03 04:37:19;;;;;;;17.03;13.10;;;10.10;99.90;;;;;;5062124;28;20572;-76
2023/05/03 04:39:47;;;;;;;15.27;13.83;;;10.10;99.90;;;;;;5056610;28;20441;-78
2023/05/03 04:42:14;;;;;;;16.53;14.53;;;10.10;99.90;;;;;;5060425;28;20460;-74
2023/05/03 04:44:42;;;;;;;17.27;15.50;;;10.10;99.90;;;;;;5059868;28;20463;-75
2023/05/03 04:47:09;;;;;;;18.97;13.80;;;10.10;99.90;;;;;;5060083;28;20945;-79
2023/05/03 04:49:38;;;;;;;14.00;12.60;;;10.10;99.90;;;;;;5067511;28;20479;-79
2023/05/03 04:52:05;;;;;;;16.83;14.47;;;10.10;99.90;;;;;;5075472;28;20519;-78
2023/05/03 04:54:33;;;;;;;15.53;14.00;;;10.20;99.90;;;;;;5070933;28;20488;-75
2023/05/03 04:57:00;;;;;;;18.90;15.53;;;10.20;99.90;;;;;;5064741;28;20927;-75
2023/05/03 04:59:27;;;;;;;15.97;14.27;;;10.20;99.90;;;;;;5061550;28;20453;-79
2023/05/03 05:01:54;;;;;;;16.50;14.90;;;10.20;99.90;;;;;;5067417;28;20467;-77
2023/05/03 05:04:21;;;;;;;16.10;14.47;;;10.20;99.90;;;;;;5063123;28;20836;-80
2023/05/03 05:06:51;;;;;;;19.70;15.47;;;10.20;99.90;;;;;;5066655;28;20474;-79
2023/05/03 05:09:22;;;;;;;16.90;15.10;;;10.30;99.90;;;;;;5069047;28;20535;-76
2023/05/03 05:11:49;;;;;;;19.07;15.10;;;10.30;99.90;;;;;;5070826;28;20521;-76
2023/05/03 05:14:16;;;;;;;16.07;14.57;;;10.30;99.90;;;;;;5068341;28;20856;-78
2023/05/03 05:16:43;;;;;;;18.80;14.57;;;10.30;99.90;;;;;;5066366;28;21019;-78
2023/05/03 05:19:10;;;;;;;15.80;14.13;;;10.30;99.90;;;;;;5068395;28;20460;-77
2023/05/03 05:21:37;;;;;;;16.83;14.13;;;10.40;99.90;;;;;;5079297;28;20516;-80
2023/05/03 05:24:06;;;;;;;18.03;16.23;;;10.40;99.90;;;;;;5066476;28;21393;-76
2023/05/03 05:26:33;;;;;;;19.20;17.20;;;10.30;99.90;;;;;;5069634;28;20920;-79
2023/05/03 05:29:00;;;;;;;16.07;14.37;;;10.30;99.90;;;;;;5067577;28;20517;-78
2023/05/03 05:31:27;;;;;;;18.37;16.23;;;10.40;99.90;;;;;;5068907;28;20543;-75
2023/05/03 05:33:54;;;;;;;16.70;15.10;;;10.40;99.90;;;;;;5063765;28;20495;-74
2023/05/03 05:36:21;;;;;;;17.97;16.07;;;10.50;99.90;;;;;;5063716;28;20468;-75
2023/05/03 05:38:47;;;;;;;17.87;15.33;;;10.50;99.90;;;;;;5060149;28;21078;-76
2023/05/03 05:41:16;;;;;;;16.40;14.70;;;10.50;99.90;;;;;;5061078;28;20453;-75
2023/05/03 05:43:43;;;;;;;16.57;15.07;;;10.60;99.90;;;;;;5061983;28;20826;-76
2023/05/03 05:46:10;;;;;;;17.60;15.77;;;10.70;99.90;;;;;;5064493;28;20548;-74
2023/05/03 05:48:39;;;;;;;16.17;14.60;;;10.70;99.90;;;;;;5063393;28;20492;-75
2023/05/03 05:51:06;;;;;;;15.57;13.27;;;10.70;99.90;;;;;;5062296;28;20453;-73
2023/05/03 05:53:33;;;;;;;15.00;12.70;;;10.80;99.90;;;;;;5067517;28;20977;-75
2023/05/03 05:56:00;;;;;;;16.10;12.07;;;10.90;99.90;;;;;;5064300;28;20461;-74
2023/05/03 05:58:28;;;;;;;12.20;11.00;;;10.90;99.90;;;;;;5066904;28;20440;-74
2023/05/03 06:00:58;;;;;;;14.70;13.10;;;10.80;99.90;;;;;;5068567;28;20464;-73
2023/05/03 06:03:25;;;;;;;11.10;10.20;;;10.90;99.90;;;;;;5059734;28;20457;-75
2023/05/03 06:05:52;;;;;;;12.37;10.37;;;10.90;99.90;;;;;;5063666;28;20457;-75
2023/05/03 06:08:19;;;;;;;12.40;11.13;;;10.90;99.90;;;;;;5064941;28;20452;-74
2023/05/03 06:10:46;;;;;;;12.57;10.80;;;10.90;99.90;;;;;;5066707;28;20529;-76
2023/05/03 06:13:13;;;;;;;13.03;11.73;;;10.90;99.90;;;;;;5062891;28;20460;-75
2023/05/03 06:15:42;;;;;;;10.40;9.40;;;10.90;99.90;;;;;;5068562;28;20488;-75
2023/05/03 06:18:09;;;;;;;10.13;9.03;;;10.80;99.90;;;;;;5067104;28;20460;-75
2023/05/03 06:20:36;;;;;;;9.60;8.77;;;10.80;99.90;;;;;;5068248;28;20937;-84
2023/05/03 06:23:03;;;;;;;11.40;10.27;;;10.90;99.90;;;;;;5069577;28;20460;-75
2023/05/03 06:25:30;;;;;;;11.20;9.73;;;10.80;99.90;;;;;;5065184;28;20514;-75
2023/05/03 06:27:57;;;;;;;10.40;9.30;;;10.80;99.90;;;;;;5067844;28;20441;-73
2023/05/03 06:30:24;;;;;;;10.10;9.20;;;10.80;99.90;;;;;;5065581;28;20460;-72
2023/05/03 06:32:52;;;;;;;10.17;9.03;;;10.70;99.90;;;;;;5057684;28;20445;-81
2023/05/03 06:35:20;;;;;;;12.00;10.03;;;10.80;99.90;;;;;;5064507;28;20515;-74
2023/05/03 06:37:48;;;;;;;10.53;9.43;;;10.80;99.90;;;;;;5061404;28;21206;-74
2023/05/03 06:40:15;;;;;;;11.27;10.17;;;10.90;99.90;;;;;;5056482;28;20914;-75
2023/05/03 06:42:42;;;;;;;13.17;11.70;;;10.90;99.90;;;;;;5063212;28;20455;-75
2023/05/03 06:45:10;;;;;;;10.83;9.73;;;11.10;99.90;;;;;;5058359;28;20464;-73
2023/05/03 06:47:38;;;;;;;10.90;9.77;;;11.20;99.90;;;;;;5063160;28;20534;-74
2023/05/03 06:50:08;;;;;;;10.87;8.60;;;11.20;99.90;;;;;;5064981;28;20445;-74
2023/05/03 06:52:35;;;;;;;9.90;9.00;;;11.20;99.90;;;;;;5066739;28;20806;-74
2023/05/03 06:55:03;;;;;;;9.80;8.90;;;11.20;99.90;;;;;;5056202;28;20565;-77
2023/05/03 06:57:30;;;;;;;9.60;8.70;;;11.30;99.90;;;;;;5066163;28;20437;-73
2023/05/03 06:59:57;;;;;;;10.90;9.30;;;11.40;99.90;;;;;;5062457;28;20518;-75
2023/05/03 07:02:24;;;;;;;11.70;9.00;;;11.40;99.90;;;;;;5065837;28;20491;-74
2023/05/03 07:04:51;;;;;;;9.87;8.87;;;11.60;99.90;;;;;;5061073;28;20476;-74
2023/05/03 07:07:19;;;;;;;8.33;7.53;;;11.70;99.90;;;;;;5065226;28;20444;-73
2023/05/03 07:09:46;;;;;;;11.20;8.63;;;11.70;99.90;;;;;;5054168;28;20530;-73
2023/05/03 07:12:13;;;;;;;9.03;7.70;;;11.80;99.90;;;;;;5056357;28;20449;-74
2023/05/03 07:14:40;;;;;;;14.83;8.67;;;11.90;99.90;;;;;;5058834;28;20493;-74
2023/05/03 07:17:07;;;;;;;11.60;9.10;;;11.80;99.90;;;;;;5061684;28;21112;-74
2023/05/03 07:19:36;;;;;;;12.87;9.60;;;11.80;99.90;;;;;;5065669;28;20965;-74
2023/05/03 07:22:03;;;;;;;9.10;8.20;;;11.90;99.90;;;;;;5064292;28;20464;-74
2023/05/03 07:24:34;;;;;;;8.97;8.07;;;11.90;99.90;;;;;;5066497;28;20535;-72
2023/05/03 07:27:01;;;;;;;10.10;8.60;;;11.90;99.90;;;;;;5061316;28;20442;-72
2023/05/03 07:29:27;;;;;;;10.10;8.30;;;12.00;99.90;;;;;;5059030;28;20511;-77
2023/05/03 07:31:54;;;;;;;9.70;8.73;;;12.10;99.90;;;;;;5065829;28;20506;-80
2023/05/03 07:34:22;;;;;;;10.43;7.90;;;12.10;99.90;;;;;;5060358;28;20485;-79
2023/05/03 07:36:48;;;;;;;10.43;8.43;;;12.00;99.90;;;;;;5058013;28;20460;-73
2023/05/03 07:39:16;;;;;;;8.73;7.90;;;12.10;99.90;;;;;;5062041;28;20437;-76
2023/05/03 07:41:44;;;;;;;8.67;7.20;;;12.00;99.90;;;;;;5062802;28;20470;-75
2023/05/03 07:44:11;;;;;;;10.07;8.93;;;11.90;99.90;;;;;;5056590;28;22130;-76
2023/05/03 07:46:38;;;;;;;10.80;8.40;;;11.90;99.90;;;;;;5065278;28;20501;-76
2023/05/03 07:49:06;;;;;;;9.80;8.37;;;11.70;99.90;;;;;;5057461;28;20560;-75
2023/05/03 07:51:35;;;;;;;10.80;8.67;;;11.60;99.90;;;;;;5059661;28;20854;-77
2023/05/03 07:54:03;;;;;;;9.03;8.23;;;11.60;99.90;;;;;;5067210;28;20436;-76
2023/05/03 07:56:30;;;;;;;8.00;7.20;;;11.60;99.90;;;;;;5060131;28;20497;-77
2023/05/03 07:58:59;;;;;;;10.10;9.10;;;11.70;99.90;;;;;;5061186;28;20506;-76
2023/05/03 08:01:26;;;;;;;10.03;8.03;;;11.90;99.90;;;;;;5060493;28;20499;-78
2023/05/03 08:03:53;;;;;;;8.07;7.17;;;12.00;99.90;;;;;;5066104;28;20917;-76
2023/05/03 08:06:20;;;;;;;8.70;7.93;;;12.30;99.90;;;;;;5061399;28;20531;-75
2023/05/03 08:08:47;;;;;;;9.60;8.40;;;12.20;99.90;;;;;;5065430;28;20498;-78
2023/05/03 08:11:14;;;;;;;8.40;7.47;;;12.50;99.90;;;;;;5065075;28;20517;-84
2023/05/03 08:13:41;;;;;;;9.43;8.47;;;12.50;99.90;;;;;;5059871;28;20460;-85
2023/05/03 08:16:10;;;;;;;9.80;7.60;;;12.50;99.90;;;;;;5065376;28;21006;-82
2023/05/03 08:18:37;;;;;;;7.70;6.93;;;12.20;99.90;;;;;;5061181;28;20452;-80
2023/05/03 08:21:05;;;;;;;9.60;7.93;;;12.20;99.90;;;;;;5062235;28;20445;-79
2023/05/03 08:23:32;;;;;;;8.13;7.10;;;12.20;99.90;;;;;;5066493;28;20520;-81
2023/05/03 08:25:59;;;;;;;8.63;7.60;;;12.00;99.90;;;;;;5067580;28;20444;-78
2023/05/03 08:28:26;;;;;;;8.60;7.80;;;12.00;99.90;;;;;;5057733;28;20543;-82
2023/05/03 08:30:53;;;;;;;9.50;7.50;;;11.90;99.90;;;;;;5055362;28;20450;-75
2023/05/03 08:33:21;;;;;;;8.90;8.00;;;12.00;99.90;;;;;;5058301;28;20992;-77
2023/05/03 08:35:48;;;;;;;10.50;8.90;;;11.90;99.90;;;;;;5065172;28;20549;-78
2023/05/03 08:38:16;;;;;;;13.73;10.00;;;11.80;99.90;;;;;;5063622;28;20464;-75
2023/05/03 08:40:44;;;;;;;9.67;8.73;;;11.90;99.90;;;;;;5062830;28;20444;-77
2023/05/03 08:43:14;;;;;;;8.03;7.23;;;11.90;99.90;;;;;;5066644;28;20448;-81
2023/05/03 08:45:41;;;;;;;9.50;7.80;;;12.20;99.90;;;;;;5065585;28;20456;-74
2023/05/03 08:48:08;;;;;;;8.90;7.40;;;12.60;99.90;;;;;;5060448;28;20489;-78
2023/05/03 08:50:41;;;;;;;10.30;9.30;;;12.90;99.90;;;;;;5065900;28;20485;-78
2023/05/03 08:53:08;;;;;;;9.73;8.40;;;12.80;99.90;;;;;;5059078;28;20521;-75
2023/05/03 08:55:35;;;;;;;9.13;8.23;;;12.80;99.90;;;;;;5054422;28;20888;-78
2023/05/03 08:58:03;;;;;;;9.40;8.50;;;12.70;99.90;;;;;;5053937;28;21159;-74
2023/05/03 09:00:30;;;;;;;8.43;7.73;;;12.70;99.90;;;;;;5053517;28;20977;-77
2023/05/03 09:02:58;;;;;;;10.40;9.30;;;12.80;99.90;;;;;;5049824;28;20457;-83
2023/05/03 09:05:33;;;;;;;8.20;7.43;;;12.90;99.90;;;;;;5062732;28;20449;-78
2023/05/03 09:08:06;;;;;;;8.07;7.37;;;13.20;99.90;;;;;;5064576;28;20435;-79
2023/05/03 09:10:34;;;;;;;11.43;7.37;;;13.40;99.90;;;;;;5065343;28;20527;-81
2023/05/03 09:13:02;;;;;;;8.77;7.53;;;13.50;99.90;;;;;;5059763;28;20469;-80
2023/05/03 09:15:30;;;;;;;7.57;6.87;;;13.70;99.90;;;;;;5061911;28;20484;-83
2023/05/03 09:18:10;;;;;;;8.90;8.10;;;13.90;99.90;;;;;;5065199;28;20462;-79
2023/05/03 09:20:38;;;;;;;9.37;7.87;;;13.90;99.90;;;;;;5052050;28;21039;-82
2023/05/03 09:23:08;;;;;;;8.80;7.87;;;13.70;99.90;;;;;;5065522;28;20448;-77
2023/05/03 09:25:43;;;;;;;8.20;7.40;;;13.50;99.90;;;;;;5064288;28;21216;-78
2023/05/03 09:28:10;;;;;;;10.27;8.47;;;13.60;99.90;;;;;;5066343;28;20445;-78
2023/05/03 09:30:37;;;;;;;8.70;7.80;;;13.60;99.90;;;;;;5063398;28;20459;-75
2023/05/03 09:33:04;;;;;;;9.30;8.43;;;13.40;99.90;;;;;;5068484;28;20437;-78
2023/05/03 09:35:32;;;;;;;9.77;8.80;;;13.60;99.90;;;;;;5068659;28;21026;-78
2023/05/03 09:37:59;;;;;;;10.30;8.50;;;13.50;99.90;;;;;;5066303;28;20578;-78
2023/05/03 09:40:28;;;;;;;13.73;9.50;;;13.60;99.90;;;;;;5070007;28;20444;-78
2023/05/03 09:43:09;;;;;;;8.77;8.00;;;13.90;99.90;;;;;;5066950;28;20525;-79
2023/05/03 09:45:36;;;;;;;9.37;7.97;;;14.00;99.90;;;;;;5068573;28;20544;-78
2023/05/03 09:48:04;;;;;;;11.23;7.27;;;13.90;99.90;;;;;;5068313;28;20534;-78
2023/05/03 09:50:35;;;;;;;11.40;8.23;;;13.80;99.90;;;;;;5068487;28;20456;-78
2023/05/03 09:53:04;;;;;;;11.20;10.10;;;13.90;99.90;;;;;;5065337;28;21000;-78
2023/05/03 09:55:34;;;;;;;9.83;8.43;;;13.70;99.90;;;;;;5068691;28;20479;-77
2023/05/03 09:58:05;;;;;;;8.33;7.53;;;13.80;99.90;;;;;;5064926;28;20874;-77
2023/05/03 10:00:35;;;;;;;8.00;7.30;;;13.90;99.90;;;;;;5067781;28;20436;-78
2023/05/03 10:03:07;;;;;;;7.90;7.27;;;13.90;99.90;;;;;;5065963;28;20452;-78
2023/05/03 10:05:41;;;;;;;9.37;8.40;;;13.80;99.90;;;;;;5067607;28;20436;-78
2023/05/03 10:08:10;;;;;;;7.83;7.13;;;14.20;99.90;;;;;;5066509;28;20455;-78
2023/05/03 10:10:42;;;;;;;8.33;7.47;;;14.20;99.90;;;;;;5074853;28;20544;-77
2023/05/03 10:13:09;;;;;;;8.10;7.30;;;14.20;99.90;;;;;;5072221;28;20648;-79
2023/05/03 10:15:37;;;;;;;7.70;6.90;;;14.40;99.90;;;;;;5071639;28;20475;-78
2023/05/03 10:18:07;;;;;;;8.40;7.60;;;14.60;99.90;;;;;;5069784;28;20468;-78
2023/05/03 10:20:40;;;;;;;8.80;8.03;;;14.90;99.90;;;;;;5067849;28;20441;-79
2023/05/03 10:23:09;;;;;;;7.50;6.90;;;14.90;99.90;;;;;;5060306;28;20512;-78
2023/05/03 10:25:39;;;;;;;10.00;9.00;;;15.10;99.90;;;;;;5062349;28;20825;-78
2023/05/03 10:28:07;;;;;;;8.83;7.10;;;15.10;99.90;;;;;;5068867;28;20441;-78
2023/05/03 10:30:35;;;;;;;9.67;7.13;;;15.20;99.90;;;;;;5066121;28;20455;-78
2023/05/03 10:33:29;;;;;;;8.40;7.63;;;15.50;99.90;;;;;;5067900;28;21005;-78
2023/05/03 10:35:57;;;;;;;8.13;7.33;;;15.40;99.90;;;;;;5067940;28;20482;-78
2023/05/03 10:38:28;;;;;;;7.37;6.70;;;15.40;99.90;;;;;;5068181;28;20444;-77
2023/05/03 10:40:57;;;;;;;9.47;8.53;;;15.30;99.90;;;;;;5068217;28;20441;-78
2023/05/03 10:43:44;;;;;;;9.23;8.30;;;15.30;99.90;;;;;;5067114;28;20447;-78
2023/05/03 10:46:31;;;;;;;6.83;6.23;;;15.50;99.90;;;;;;5066251;28;20511;-77
2023/05/03 10:49:18;;;;;;;8.80;8.00;;;15.60;99.90;;;;;;5067294;28;20483;-78
2023/05/03 10:51:45;;;;;;;9.87;8.97;;;15.80;99.90;;;;;;5067235;28;20531;-78
2023/05/03 10:54:12;;;;;;;7.30;6.70;;;16.30;99.90;;;;;;5067905;28;20441;-78
2023/05/03 10:56:53;;;;;;;9.97;7.80;;;16.20;99.90;;;;;;5060865;28;20903;-78
2023/05/03 10:59:22;;;;;;;8.43;7.73;;;16.50;99.90;;;;;;5067318;28;20456;-78
2023/05/03 11:01:51;;;;;;;10.10;7.83;;;17.20;99.90;;;;;;5067263;28;21151;-76
2023/05/03 11:04:36;;;;;;;10.80;7.47;;;17.30;99.90;;;;;;5068052;28;20940;-77
2023/05/03 11:07:03;;;;;;;11.23;7.70;;;17.40;99.90;;;;;;5067065;28;20502;-77
2023/05/03 11:09:34;;;;;;;8.97;8.17;;;16.80;99.90;;;;;;5067728;28;20456;-76
2023/05/03 11:12:07;;;;;;;9.97;8.07;;;16.40;99.90;;;;;;5067069;28;20461;-76
2023/05/03 11:14:34;;;;;;;8.97;8.07;;;16.30;99.90;;;;;;5063426;28;20438;-76
2023/05/03 11:17:01;;;;;;;7.87;7.17;;;16.30;99.90;;;;;;5056778;28;20980;-77
2023/05/03 11:19:29;;;;;;;8.43;7.60;;;16.80;99.90;;;;;;5065352;28;20458;-76
2023/05/03 11:21:57;;;;;;;7.97;7.27;;;16.80;99.90;;;;;;5061048;28;20544;-78
2023/05/03 11:24:24;;;;;;;8.23;7.47;;;17.00;99.90;;;;;;5047869;28;20470;-78
2023/05/03 11:26:51;;;;;;;8.57;7.80;;;16.80;99.90;;;;;;5051159;28;20499;-77
2023/05/03 11:29:20;;;;;;;8.43;7.73;;;17.50;99.90;;;;;;5066454;28;20474;-78
2023/05/03 11:31:47;;;;;;;8.20;7.50;;;17.90;99.90;;;;;;5066508;28;20446;-78
2023/05/03 11:34:14;;;;;;;7.40;6.70;;;18.10;99.90;;;;;;5057735;28;21015;-78
2023/05/03 11:36:42;;;;;;;9.83;8.27;;;18.10;99.90;;;;;;5055583;28;20522;-77
2023/05/03 11:39:11;;;;;;;8.07;7.37;;;17.20;99.90;;;;;;5060682;28;20451;-77
2023/05/03 11:41:40;;;;;;;8.47;7.80;;;17.30;99.90;;;;;;5062318;28;20446;-77
2023/05/03 11:44:07;;;;;;;7.80;7.10;;;17.60;99.90;;;;;;5053527;28;20466;-78
2023/05/03 11:46:38;;;;;;;8.37;7.67;;;17.90;99.90;;;;;;5064984;28;20450;-77
2023/05/03 11:49:05;;;;;;;8.67;7.87;;;18.00;99.90;;;;;;5063858;28;20480;-78
2023/05/03 11:51:32;;;;;;;10.23;9.30;;;18.00;99.90;;;;;;5057058;28;20855;-78
2023/05/03 11:54:01;;;;;;;9.03;8.20;;;17.80;99.60;;;;;;5062470;28;20463;-78
2023/05/03 11:56:28;;;;;;;8.70;7.90;;;17.50;99.90;;;;;;5054102;28;21030;-77
2023/05/03 11:58:57;;;;;;;8.40;7.60;;;17.30;99.90;;;;;;5060780;28;20739;-77
2023/05/03 12:01:25;;;;;;;8.07;7.30;;;17.40;99.90;;;;;;5065663;28;20547;-77
2023/05/03 12:03:58;;;;;;;8.80;8.00;;;17.10;99.90;;;;;;5053813;28;20463;-78
2023/05/03 12:06:26;;;;;;;8.50;7.80;;;17.10;99.90;;;;;;5056927;28;20455;-77
2023/05/03 12:08:53;;;;;;;9.80;9.00;;;16.70;99.90;;;;;;5061122;28;20475;-77
2023/05/03 12:11:20;;;;;;;9.73;8.83;;;16.60;99.90;;;;;;5059788;28;20491;-77
2023/05/03 12:13:57;;;;;;;9.17;8.27;;;16.10;99.90;;;;;;5059445;28;20466;-78
2023/05/03 12:16:24;;;;;;;7.93;7.27;;;16.00;99.90;;;;;;5062679;28;20825;-77
2023/05/03 12:18:55;;;;;;;10.00;7.57;;;16.20;99.90;;;;;;5063215;28;20461;-77
2023/05/03 12:21:25;;;;;;;8.47;7.80;;;16.20;99.90;;;;;;5064011;28;20786;-78
2023/05/03 12:23:52;;;;;;;8.70;8.00;;;15.80;99.90;;;;;;5061906;28;20507;-77
2023/05/03 12:26:20;;;;;;;10.50;8.33;;;15.70;99.90;;;;;;5049063;28;20515;-77
2023/05/03 12:28:47;;;;;;;8.70;8.00;;;15.90;99.90;;;;;;5061292;28;20492;-77
2023/05/03 12:31:16;;;;;;;8.17;7.37;;;16.40;99.90;;;;;;5058969;28;20456;-77
2023/05/03 12:33:43;;;;;;;9.00;8.13;;;17.00;99.90;;;;;;5058205;28;20992;-77
2023/05/03 12:36:11;;;;;;;7.73;7.13;;;16.50;99.90;;;;;;5052764;28;20552;-77
2023/05/03 12:38:39;;;;;;;7.53;6.93;;;16.30;99.90;;;;;;5062102;28;20962;-78
2023/05/03 12:41:06;;;;;;;8.30;7.57;;;16.30;99.90;;;;;;5059052;28;20498;-78
2023/05/03 12:43:33;;;;;;;9.83;8.83;;;16.10;99.90;;;;;;5054941;28;21025;-77